createdAt,value
2023-03-26T00:00:45.054Z,95.55
2023-03-26T00:01:45.068Z,95.40
2023-03-26T00:02:45.114Z,95.20
2023-03-26T00:03:45.153Z,95.34
2023-03-26T00:04:45.033Z,95.30
2023-03-26T00:05:45.910Z,94.93
2023-03-26T00:06:44.982Z,94.99
2023-03-26T00:07:44.965Z,94.68
2023-03-26T00:08:45.050Z,94.48
2023-03-26T00:09:44.942Z,94.37
2023-03-26T00:10:44.918Z,94.27
2023-03-26T00:11:44.923Z,94.37
2023-03-26T00:12:44.922Z,94.78
2023-03-26T00:13:44.887Z,94.99
2023-03-26T00:14:44.884Z,94.99
2023-03-26T00:15:44.888Z,94.89
2023-03-26T00:16:44.862Z,94.78
2023-03-26T00:17:44.848Z,94.78
2023-03-26T00:18:44.820Z,94.78
2023-03-26T00:19:44.835Z,94.68
2023-03-26T00:20:44.831Z,94.58
2023-03-26T00:21:44.776Z,94.58
2023-03-26T00:22:44.785Z,94.58
2023-03-26T00:23:44.738Z,94.27
2023-03-26T00:24:44.752Z,94.27
2023-03-26T00:25:44.724Z,94.17
2023-03-26T00:26:44.814Z,94.07
2023-03-26T00:27:44.711Z,94.07
2023-03-26T00:28:44.705Z,93.65
2023-03-26T00:29:44.677Z,93.44
2023-03-26T00:30:44.666Z,93.35
2023-03-26T00:31:44.698Z,93.24
2023-03-26T00:32:44.689Z,93.14
2023-03-26T00:33:45.613Z,93.24
2023-03-26T00:34:44.603Z,93.24
2023-03-26T00:35:44.601Z,93.35
2023-03-26T00:36:44.591Z,93.35
2023-03-26T00:37:44.570Z,93.35
2023-03-26T00:38:44.568Z,93.35
2023-03-26T00:39:44.549Z,93.35
2023-03-26T00:40:44.539Z,93.44
2023-03-26T00:41:44.505Z,93.04
2023-03-26T00:42:44.678Z,93.04
2023-03-26T00:43:44.518Z,92.63
2023-03-26T00:44:44.475Z,92.63
2023-03-26T00:45:44.450Z,92.21
2023-03-26T00:46:44.535Z,92.42
2023-03-26T00:47:44.517Z,92.21
2023-03-26T00:48:45.931Z,92.11
2023-03-26T00:49:44.406Z,92.11
2023-03-26T00:50:44.415Z,92.01
2023-03-26T00:51:44.384Z,92.11
2023-03-26T00:52:44.374Z,92.01
2023-03-26T00:53:44.403Z,91.80
2023-03-26T00:54:44.362Z,91.91
2023-03-26T00:55:44.327Z,91.60
2023-03-26T00:56:44.358Z,91.39
2023-03-26T00:57:44.312Z,91.08
2023-03-26T00:58:44.324Z,90.78
2023-03-26T00:59:44.295Z,90.57
2023-03-26T01:00:46.396Z,90.78
2023-03-26T01:01:44.334Z,90.57
2023-03-26T01:02:44.290Z,90.57
2023-03-26T01:03:53.016Z,90.78
2023-03-26T01:04:45.279Z,90.12
2023-03-26T01:05:44.219Z,90.26
2023-03-26T01:06:44.195Z,90.26
2023-03-26T01:07:44.195Z,90.26
2023-03-26T01:08:44.171Z,90.26
2023-03-26T01:09:44.166Z,90.26
2023-03-26T01:10:44.143Z,89.95
2023-03-26T01:11:44.147Z,90.12
2023-03-26T01:12:44.125Z,90.36
2023-03-26T01:13:44.109Z,90.16
2023-03-26T01:14:44.104Z,89.91
2023-03-26T01:15:44.113Z,89.81
2023-03-26T01:16:44.052Z,89.91
2023-03-26T01:17:44.104Z,90.06
2023-03-26T01:18:44.030Z,90.06
2023-03-26T01:19:44.044Z,89.60
2023-03-26T01:20:44.014Z,89.50
2023-03-26T01:21:44.052Z,89.60
2023-03-26T01:22:43.993Z,89.91
2023-03-26T01:23:43.966Z,90.12
2023-03-26T01:24:44.013Z,89.91
2023-03-26T01:25:43.953Z,89.64
2023-03-26T01:26:43.927Z,89.70
2023-03-26T01:27:43.926Z,89.81
2023-03-26T01:28:43.900Z,89.70
2023-03-26T01:29:43.925Z,90.16
2023-03-26T01:30:43.892Z,90.47
2023-03-26T01:31:43.866Z,90.57
2023-03-26T01:32:44.141Z,90.57
2023-03-26T01:33:44.054Z,90.57
2023-03-26T01:34:43.835Z,90.57
2023-03-26T01:35:43.859Z,90.47
2023-03-26T01:36:43.853Z,90.47
2023-03-26T01:37:43.787Z,90.78
2023-03-26T01:38:43.837Z,91.39
2023-03-26T01:39:43.781Z,91.39
2023-03-26T01:40:43.756Z,91.60
2023-03-26T01:41:43.743Z,91.70
2023-03-26T01:42:43.748Z,91.39
2023-03-26T01:43:43.734Z,92.01
2023-03-26T01:44:43.702Z,92.63
2023-03-26T01:45:43.697Z,92.63
2023-03-26T01:46:43.738Z,93.08
2023-03-26T01:47:43.782Z,93.39
2023-03-26T01:48:43.696Z,93.80
2023-03-26T01:49:43.642Z,93.59
2023-03-26T01:50:43.628Z,93.70
2023-03-26T01:51:43.620Z,93.59
2023-03-26T01:52:43.592Z,93.39
2023-03-26T01:53:43.596Z,93.39
2023-03-26T01:54:50.650Z,93.49
2023-03-26T01:55:43.572Z,93.39
2023-03-26T01:56:43.573Z,93.29
2023-03-26T01:57:43.564Z,93.18
2023-03-26T01:58:43.567Z,93.18
2023-03-26T01:59:43.509Z,93.49
2023-03-26T02:00:43.481Z,93.80
2023-03-26T02:01:43.656Z,93.39
2023-03-26T02:02:43.652Z,92.57
2023-03-26T02:03:43.493Z,92.57
2023-03-26T02:04:43.478Z,92.67
2023-03-26T02:05:43.434Z,92.61
2023-03-26T02:06:43.422Z,92.82
2023-03-26T02:07:43.404Z,93.02
2023-03-26T02:08:43.420Z,92.82
2023-03-26T02:09:43.411Z,92.30
2023-03-26T02:10:43.390Z,92.20
2023-03-26T02:11:43.393Z,92.40
2023-03-26T02:12:43.370Z,92.71
2023-03-26T02:13:43.356Z,92.50
2023-03-26T02:14:43.346Z,91.99
2023-03-26T02:15:43.351Z,91.78
2023-03-26T02:16:43.365Z,91.99
2023-03-26T02:17:43.345Z,92.20
2023-03-26T02:18:43.267Z,92.20
2023-03-26T02:19:43.250Z,92.30
2023-03-26T02:20:43.264Z,92.40
2023-03-26T02:21:43.283Z,92.71
2023-03-26T02:22:43.255Z,92.71
2023-03-26T02:23:43.199Z,92.50
2023-03-26T02:24:43.204Z,92.40
2023-03-26T02:25:43.196Z,92.82
2023-03-26T02:26:43.151Z,92.82
2023-03-26T02:27:43.171Z,92.82
2023-03-26T02:28:43.181Z,93.12
2023-03-26T02:29:43.144Z,93.33
2023-03-26T02:30:43.108Z,93.64
2023-03-26T02:31:43.132Z,93.84
2023-03-26T02:32:43.184Z,94.05
2023-03-26T02:33:43.203Z,94.30
2023-03-26T02:34:43.050Z,94.40
2023-03-26T02:35:43.117Z,94.30
2023-03-26T02:36:43.120Z,94.51
2023-03-26T02:37:43.025Z,94.60
2023-03-26T02:38:43.002Z,94.30
2023-03-26T02:39:43.039Z,94.20
2023-03-26T02:40:43.021Z,94.09
2023-03-26T02:41:42.977Z,93.88
2023-03-26T02:42:42.985Z,93.95
2023-03-26T02:43:42.954Z,93.88
2023-03-26T02:44:42.926Z,93.88
2023-03-26T02:45:42.973Z,94.09
2023-03-26T02:46:42.905Z,94.20
2023-03-26T02:47:42.912Z,94.20
2023-03-26T02:48:42.882Z,94.30
2023-03-26T02:49:42.852Z,94.40
2023-03-26T02:50:42.846Z,94.51
2023-03-26T02:51:42.858Z,94.51
2023-03-26T02:52:42.847Z,94.60
2023-03-26T02:53:42.801Z,94.60
2023-03-26T02:54:42.794Z,94.60
2023-03-26T02:55:42.834Z,94.60
2023-03-26T02:56:42.816Z,94.60
2023-03-26T02:57:42.760Z,94.51
2023-03-26T02:58:42.798Z,94.40
2023-03-26T02:59:42.744Z,94.51
2023-03-26T03:00:42.731Z,94.40
2023-03-26T03:01:42.738Z,94.51
2023-03-26T03:02:42.840Z,94.51
2023-03-26T03:03:42.685Z,94.30
2023-03-26T03:04:42.664Z,94.09
2023-03-26T03:05:42.695Z,93.99
2023-03-26T03:06:42.622Z,93.99
2023-03-26T03:07:42.664Z,93.84
2023-03-26T03:08:42.624Z,93.74
2023-03-26T03:09:42.650Z,93.74
2023-03-26T03:10:42.570Z,93.74
2023-03-26T03:11:42.577Z,93.54
2023-03-26T03:12:42.579Z,93.54
2023-03-26T03:13:42.600Z,93.74
2023-03-26T03:14:42.556Z,93.74
2023-03-26T03:15:42.537Z,93.43
2023-03-26T03:16:42.551Z,93.33
2023-03-26T03:17:42.561Z,93.12
2023-03-26T03:18:42.500Z,93.33
2023-03-26T03:19:42.482Z,93.33
2023-03-26T03:20:42.476Z,93.23
2023-03-26T03:21:42.483Z,93.12
2023-03-26T03:22:42.410Z,93.33
2023-03-26T03:23:42.430Z,93.33
2023-03-26T03:24:42.408Z,93.33
2023-03-26T03:25:42.392Z,93.33
2023-03-26T03:26:42.522Z,93.33
2023-03-26T03:27:42.378Z,93.43
2023-03-26T03:28:42.346Z,93.54
2023-03-26T03:29:42.327Z,93.54
2023-03-26T03:30:42.368Z,93.64
2023-03-26T03:31:42.321Z,93.84
2023-03-26T03:32:42.308Z,93.74
2023-03-26T03:33:42.291Z,93.64
2023-03-26T03:34:42.283Z,93.43
2023-03-26T03:35:42.312Z,93.23
2023-03-26T03:36:42.240Z,93.43
2023-03-26T03:37:42.256Z,93.33
2023-03-26T03:38:42.226Z,93.12
2023-03-26T03:39:42.216Z,92.92
2023-03-26T03:40:42.188Z,92.61
2023-03-26T03:41:42.187Z,92.50
2023-03-26T03:42:42.182Z,92.40
2023-03-26T03:43:42.226Z,92.40
2023-03-26T03:44:42.162Z,92.50
2023-03-26T03:45:42.187Z,92.61
2023-03-26T03:46:42.216Z,92.82
2023-03-26T03:47:42.198Z,92.92
2023-03-26T03:48:42.135Z,92.92
2023-03-26T03:49:42.163Z,92.92
2023-03-26T03:50:42.189Z,92.82
2023-03-26T03:51:42.063Z,92.61
2023-03-26T03:52:42.080Z,92.36
2023-03-26T03:53:42.091Z,92.25
2023-03-26T03:54:42.056Z,92.36
2023-03-26T03:55:42.024Z,92.46
2023-03-26T03:56:42.061Z,92.57
2023-03-26T03:57:41.998Z,92.67
2023-03-26T03:58:41.993Z,92.71
2023-03-26T03:59:47.472Z,92.67
2023-03-26T04:00:42.929Z,92.71
2023-03-26T04:01:41.936Z,92.67
2023-03-26T04:02:42.057Z,92.36
2023-03-26T04:03:42.011Z,92.36
2023-03-26T04:04:42.011Z,92.25
2023-03-26T04:05:41.885Z,92.36
2023-03-26T04:06:41.857Z,92.36
2023-03-26T04:07:41.855Z,92.25
2023-03-26T04:08:41.856Z,92.25
2023-03-26T04:09:41.860Z,92.05
2023-03-26T04:10:41.830Z,92.05
2023-03-26T04:11:41.868Z,91.95
2023-03-26T04:12:41.796Z,91.53
2023-03-26T04:13:41.774Z,91.64
2023-03-26T04:14:41.768Z,91.85
2023-03-26T04:15:41.768Z,92.05
2023-03-26T04:16:41.723Z,92.25
2023-03-26T04:17:41.776Z,92.36
2023-03-26T04:18:41.690Z,92.46
2023-03-26T04:19:41.706Z,92.57
2023-03-26T04:20:41.694Z,92.67
2023-03-26T04:21:41.707Z,92.77
2023-03-26T04:22:41.646Z,92.67
2023-03-26T04:23:41.650Z,92.67
2023-03-26T04:24:41.664Z,92.57
2023-03-26T04:25:41.664Z,92.57
2023-03-26T04:26:41.599Z,92.67
2023-03-26T04:27:41.766Z,92.87
2023-03-26T04:28:41.565Z,92.67
2023-03-26T04:29:41.575Z,92.87
2023-03-26T04:30:41.562Z,92.71
2023-03-26T04:31:41.576Z,92.71
2023-03-26T04:32:41.549Z,92.77
2023-03-26T04:33:41.529Z,92.92
2023-03-26T04:34:41.505Z,93.02
2023-03-26T04:35:41.528Z,93.23
2023-03-26T04:36:41.505Z,93.54
2023-03-26T04:37:41.469Z,93.64
2023-03-26T04:38:41.447Z,93.84
2023-03-26T04:39:41.471Z,93.84
2023-03-26T04:40:41.449Z,93.84
2023-03-26T04:41:41.401Z,93.54
2023-03-26T04:42:41.376Z,93.43
2023-03-26T04:43:41.409Z,93.74
2023-03-26T04:44:41.364Z,93.84
2023-03-26T04:45:41.379Z,93.54
2023-03-26T04:46:41.422Z,93.23
2023-03-26T04:47:41.388Z,93.43
2023-03-26T04:48:41.365Z,93.12
2023-03-26T04:49:41.359Z,93.12
2023-03-26T04:50:41.289Z,93.12
2023-03-26T04:51:41.307Z,92.82
2023-03-26T04:52:42.624Z,92.71
2023-03-26T04:53:41.257Z,92.92
2023-03-26T04:54:41.247Z,93.12
2023-03-26T04:55:41.232Z,93.23
2023-03-26T04:56:41.249Z,93.33
2023-03-26T04:57:41.218Z,93.33
2023-03-26T04:58:41.177Z,93.43
2023-03-26T04:59:41.202Z,93.43
2023-03-26T05:00:41.215Z,93.23
2023-03-26T05:01:41.172Z,93.02
2023-03-26T05:02:41.177Z,92.82
2023-03-26T05:03:41.196Z,92.92
2023-03-26T05:04:41.152Z,93.23
2023-03-26T05:05:41.183Z,93.43
2023-03-26T05:06:41.082Z,93.43
2023-03-26T05:07:41.281Z,93.43
2023-03-26T05:08:41.211Z,93.54
2023-03-26T05:09:41.188Z,93.64
2023-03-26T05:10:41.011Z,93.95
2023-03-26T05:11:41.018Z,93.95
2023-03-26T05:12:41.005Z,93.64
2023-03-26T05:13:40.978Z,93.64
2023-03-26T05:14:40.977Z,93.64
2023-03-26T05:15:40.979Z,93.64
2023-03-26T05:16:40.983Z,93.74
2023-03-26T05:17:40.999Z,93.64
2023-03-26T05:18:40.927Z,93.54
2023-03-26T05:19:40.923Z,93.33
2023-03-26T05:20:40.880Z,93.43
2023-03-26T05:21:40.923Z,93.43
2023-03-26T05:22:40.881Z,93.12
2023-03-26T05:23:40.841Z,93.12
2023-03-26T05:24:40.861Z,93.12
2023-03-26T05:25:40.854Z,92.82
2023-03-26T05:26:40.833Z,92.50
2023-03-26T05:27:40.803Z,92.61
2023-03-26T05:28:40.775Z,92.40
2023-03-26T05:29:40.793Z,92.40
2023-03-26T05:30:40.770Z,92.50
2023-03-26T05:31:40.796Z,92.30
2023-03-26T05:32:40.862Z,92.30
2023-03-26T05:33:40.813Z,92.20
2023-03-26T05:34:40.753Z,92.30
2023-03-26T05:35:40.728Z,92.10
2023-03-26T05:36:40.689Z,91.99
2023-03-26T05:37:40.676Z,92.20
2023-03-26T05:38:40.694Z,92.10
2023-03-26T05:39:40.671Z,92.16
2023-03-26T05:40:40.657Z,91.95
2023-03-26T05:41:40.630Z,92.10
2023-03-26T05:42:40.634Z,91.89
2023-03-26T05:43:40.607Z,91.89
2023-03-26T05:44:40.597Z,92.10
2023-03-26T05:45:40.596Z,92.16
2023-03-26T05:46:40.577Z,92.25
2023-03-26T05:47:40.744Z,92.25
2023-03-26T05:48:40.565Z,92.61
2023-03-26T05:49:40.501Z,92.61
2023-03-26T05:50:40.492Z,92.82
2023-03-26T05:51:40.483Z,92.82
2023-03-26T05:52:40.499Z,92.92
2023-03-26T05:53:40.492Z,92.87
2023-03-26T05:54:40.481Z,92.92
2023-03-26T05:55:40.445Z,93.02
2023-03-26T05:56:40.478Z,92.92
2023-03-26T05:57:40.432Z,92.67
2023-03-26T05:58:40.423Z,92.77
2023-03-26T05:59:40.395Z,92.57
2023-03-26T06:00:40.399Z,92.67
2023-03-26T06:01:40.405Z,92.57
2023-03-26T06:02:40.419Z,92.61
2023-03-26T06:03:40.404Z,92.57
2023-03-26T06:04:40.408Z,92.57
2023-03-26T06:05:40.307Z,92.57
2023-03-26T06:06:40.343Z,92.25
2023-03-26T06:07:40.295Z,92.25
2023-03-26T06:08:40.293Z,92.36
2023-03-26T06:09:40.253Z,92.36
2023-03-26T06:10:40.242Z,92.57
2023-03-26T06:11:40.244Z,92.36
2023-03-26T06:12:40.233Z,92.25
2023-03-26T06:13:40.214Z,92.05
2023-03-26T06:14:40.280Z,91.95
2023-03-26T06:15:40.254Z,91.74
2023-03-26T06:16:40.169Z,91.85
2023-03-26T06:17:40.172Z,91.95
2023-03-26T06:18:40.165Z,91.95
2023-03-26T06:19:40.166Z,91.85
2023-03-26T06:20:40.144Z,91.64
2023-03-26T06:21:40.113Z,91.85
2023-03-26T06:22:40.094Z,92.16
2023-03-26T06:23:42.836Z,92.16
2023-03-26T06:24:40.138Z,92.36
2023-03-26T06:25:40.068Z,93.08
2023-03-26T06:26:40.049Z,92.97
2023-03-26T06:27:40.026Z,93.95
2023-03-26T06:28:40.034Z,95.28
2023-03-26T06:29:40.031Z,96.11
2023-03-26T06:30:40.016Z,96.67
2023-03-26T06:31:40.031Z,96.67
2023-03-26T06:32:40.012Z,96.81
2023-03-26T06:33:39.971Z,96.14
2023-03-26T06:34:39.945Z,96.49
2023-03-26T06:35:39.942Z,96.84
2023-03-26T06:36:39.940Z,97.51
2023-03-26T06:37:39.879Z,97.82
2023-03-26T06:38:39.882Z,98.13
2023-03-26T06:39:39.911Z,98.54
2023-03-26T06:40:39.851Z,98.75
2023-03-26T06:41:39.850Z,98.96
2023-03-26T06:43:08.268Z,99.06
2023-03-26T06:43:40.801Z,99.06
2023-03-26T06:44:39.801Z,99.06
2023-03-26T06:45:39.810Z,99.06
2023-03-26T06:46:39.798Z,99.16
2023-03-26T06:47:39.832Z,99.47
2023-03-26T06:48:39.780Z,99.26
2023-03-26T06:49:39.739Z,99.16
2023-03-26T06:50:39.716Z,98.96
2023-03-26T06:51:39.719Z,98.65
2023-03-26T06:52:39.710Z,98.65
2023-03-26T06:53:39.715Z,98.75
2023-03-26T06:54:39.704Z,98.02
2023-03-26T06:55:39.657Z,97.98
2023-03-26T06:56:39.774Z,98.29
2023-03-26T06:57:39.637Z,98.29
2023-03-26T06:58:39.640Z,98.29
2023-03-26T06:59:39.613Z,98.50
2023-03-26T07:00:39.656Z,98.80
2023-03-26T07:01:39.639Z,99.01
2023-03-26T07:02:39.680Z,98.91
2023-03-26T07:03:39.585Z,98.86
2023-03-26T07:04:39.554Z,98.45
2023-03-26T07:05:39.540Z,97.83
2023-03-26T07:06:39.574Z,97.63
2023-03-26T07:07:46.122Z,95.36
2023-03-26T07:08:40.532Z,94.43
2023-03-26T07:09:39.502Z,94.64
2023-03-26T07:10:39.469Z,94.43
2023-03-26T07:11:39.496Z,93.81
2023-03-26T07:12:39.480Z,92.16
2023-03-26T07:13:39.424Z,92.12
2023-03-26T07:14:39.426Z,92.37
2023-03-26T07:15:39.400Z,92.22
2023-03-26T07:16:39.401Z,92.84
2023-03-26T07:17:39.596Z,92.53
2023-03-26T07:18:39.525Z,92.94
2023-03-26T07:19:39.353Z,92.84
2023-03-26T07:20:39.334Z,93.15
2023-03-26T07:21:39.334Z,93.87
2023-03-26T07:22:39.323Z,94.59
2023-03-26T07:23:39.326Z,94.28
2023-03-26T07:24:39.309Z,94.08
2023-03-26T07:25:39.310Z,94.18
2023-03-26T07:26:39.251Z,94.24
2023-03-26T07:27:39.273Z,93.16
2023-03-26T07:28:39.261Z,92.55
2023-03-26T07:29:39.251Z,91.68
2023-03-26T07:30:39.210Z,90.66
2023-03-26T07:31:39.274Z,90.75
2023-03-26T07:32:39.204Z,91.47
2023-03-26T07:33:39.183Z,91.47
2023-03-26T07:34:39.192Z,91.02
2023-03-26T07:35:39.238Z,90.92
2023-03-26T07:36:39.160Z,88.76
2023-03-26T07:37:39.135Z,88.14
2023-03-26T07:38:39.101Z,88.76
2023-03-26T07:39:39.094Z,87.84
2023-03-26T07:40:39.091Z,87.84
2023-03-26T07:41:39.069Z,88.24
2023-03-26T07:42:39.047Z,86.70
2023-03-26T07:43:39.052Z,86.80
2023-03-26T07:44:39.033Z,87.52
2023-03-26T07:45:39.088Z,87.79
2023-03-26T07:46:39.059Z,88.10
2023-03-26T07:47:38.994Z,88.10
2023-03-26T07:48:38.985Z,86.77
2023-03-26T07:49:38.964Z,85.94
2023-03-26T07:50:38.963Z,86.62
2023-03-26T07:51:38.949Z,86.62
2023-03-26T07:52:38.925Z,84.67
2023-03-26T07:53:38.975Z,84.26
2023-03-26T07:54:45.952Z,84.67
2023-03-26T07:55:38.882Z,84.26
2023-03-26T07:56:38.912Z,85.49
2023-03-26T07:57:38.872Z,85.08
2023-03-26T07:58:38.835Z,86.42
2023-03-26T07:59:38.827Z,85.80
2023-03-26T08:00:38.811Z,83.64
2023-03-26T08:01:38.818Z,83.64
2023-03-26T08:02:38.817Z,83.95
2023-03-26T08:03:38.829Z,83.44
2023-03-26T08:04:38.918Z,84.16
2023-03-26T08:05:38.795Z,84.47
2023-03-26T08:06:38.730Z,83.64
2023-03-26T08:07:38.729Z,83.54
2023-03-26T08:08:38.721Z,83.23
2023-03-26T08:09:38.716Z,84.05
2023-03-26T08:10:38.683Z,83.75
2023-03-26T08:11:38.664Z,82.31
2023-03-26T08:12:38.652Z,82.31
2023-03-26T08:13:38.649Z,82.71
2023-03-26T08:14:38.619Z,82.82
2023-03-26T08:15:38.681Z,84.05
2023-03-26T08:16:38.610Z,84.88
2023-03-26T08:17:38.641Z,85.60
2023-03-26T08:18:38.581Z,84.98
2023-03-26T08:19:38.597Z,84.56
2023-03-26T08:20:38.550Z,85.39
2023-03-26T08:21:38.536Z,84.77
2023-03-26T08:22:38.528Z,83.95
2023-03-26T08:23:50.574Z,84.26
2023-03-26T08:24:39.486Z,84.36
2023-03-26T08:25:38.564Z,83.95
2023-03-26T08:26:38.485Z,83.33
2023-03-26T08:27:38.470Z,83.70
2023-03-26T08:28:38.459Z,83.70
2023-03-26T08:29:38.429Z,83.61
2023-03-26T08:30:38.426Z,83.44
2023-03-26T08:31:38.447Z,83.23
2023-03-26T08:32:38.447Z,83.85
2023-03-26T08:33:38.600Z,84.36
2023-03-26T08:34:38.378Z,85.97
2023-03-26T08:35:38.381Z,84.67
2023-03-26T08:36:38.339Z,84.74
2023-03-26T08:37:38.312Z,85.97
2023-03-26T08:38:38.322Z,84.63
2023-03-26T08:39:38.316Z,83.81
2023-03-26T08:40:38.273Z,83.91
2023-03-26T08:41:38.268Z,84.22
2023-03-26T08:42:38.280Z,83.70
2023-03-26T08:43:38.229Z,84.01
2023-03-26T08:44:38.224Z,84.12
2023-03-26T08:45:38.228Z,84.53
2023-03-26T08:46:38.263Z,84.74
2023-03-26T08:47:38.215Z,84.53
2023-03-26T08:48:38.222Z,84.84
2023-03-26T08:49:38.156Z,83.61
2023-03-26T08:50:38.180Z,83.81
2023-03-26T08:51:38.131Z,83.61
2023-03-26T08:52:38.143Z,82.95
2023-03-26T08:53:38.118Z,82.43
2023-03-26T08:54:38.087Z,82.23
2023-03-26T08:55:38.122Z,82.50
2023-03-26T08:56:38.292Z,81.30
2023-03-26T08:57:38.053Z,81.48
2023-03-26T08:58:38.060Z,81.37
2023-03-26T08:59:38.031Z,81.57
2023-03-26T09:00:38.024Z,82.40
2023-03-26T09:01:38.065Z,81.57
2023-03-26T09:02:38.109Z,80.76
2023-03-26T09:03:38.011Z,81.27
2023-03-26T09:04:37.955Z,82.09
2023-03-26T09:05:38.054Z,81.88
2023-03-26T09:06:37.962Z,81.68
2023-03-26T09:07:37.935Z,81.57
2023-03-26T09:08:37.909Z,82.50
2023-03-26T09:09:38.917Z,82.91
2023-03-26T09:10:37.894Z,81.88
2023-03-26T09:11:37.912Z,82.50
2023-03-26T09:12:37.869Z,81.57
2023-03-26T09:13:37.869Z,82.54
2023-03-26T09:14:37.836Z,83.15
2023-03-26T09:15:38.487Z,83.26
2023-03-26T09:16:37.872Z,83.36
2023-03-26T09:17:37.835Z,83.05
2023-03-26T09:18:37.776Z,83.26
2023-03-26T09:19:37.810Z,84.32
2023-03-26T09:20:37.768Z,83.70
2023-03-26T09:21:37.749Z,84.42
2023-03-26T09:22:37.727Z,84.01
2023-03-26T09:23:37.727Z,84.47
2023-03-26T09:24:37.755Z,84.56
2023-03-26T09:25:37.730Z,84.77
2023-03-26T09:26:37.687Z,84.88
2023-03-26T09:27:37.660Z,85.60
2023-03-26T09:28:37.663Z,85.66
2023-03-26T09:29:37.652Z,84.53
2023-03-26T09:30:37.644Z,84.74
2023-03-26T09:31:37.651Z,84.63
2023-03-26T09:32:37.654Z,84.01
2023-03-26T09:33:37.596Z,84.22
2023-03-26T09:34:37.582Z,84.12
2023-03-26T09:35:37.602Z,84.22
2023-03-26T09:36:37.543Z,84.12
2023-03-26T09:37:56.249Z,83.70
2023-03-26T09:38:38.520Z,84.01
2023-03-26T09:39:37.526Z,83.70
2023-03-26T09:40:37.583Z,83.61
2023-03-26T09:41:37.491Z,82.89
2023-03-26T09:42:37.481Z,82.89
2023-03-26T09:43:37.467Z,82.68
2023-03-26T09:44:37.439Z,82.99
2023-03-26T09:45:37.446Z,84.12
2023-03-26T09:46:37.599Z,83.77
2023-03-26T09:47:37.458Z,83.56
2023-03-26T09:48:37.379Z,84.18
2023-03-26T09:49:37.401Z,84.59
2023-03-26T09:50:37.376Z,84.80
2023-03-26T09:51:37.374Z,84.28
2023-03-26T09:52:37.331Z,85.00
2023-03-26T09:53:37.335Z,85.76
2023-03-26T09:54:37.302Z,84.94
2023-03-26T09:55:37.350Z,86.17
2023-03-26T09:56:38.476Z,86.17
2023-03-26T09:57:37.310Z,86.83
2023-03-26T09:58:37.250Z,88.27
2023-03-26T09:59:37.240Z,88.98
2023-03-26T10:00:37.222Z,89.29
2023-03-26T10:01:37.337Z,89.85
2023-03-26T10:02:46.502Z,89.79
2023-03-26T10:03:38.225Z,91.06
2023-03-26T10:04:37.229Z,91.17
2023-03-26T10:05:37.177Z,91.83
2023-03-26T10:06:37.171Z,92.76
2023-03-26T10:07:37.146Z,93.37
2023-03-26T10:08:37.147Z,93.58
2023-03-26T10:09:37.133Z,93.79
2023-03-26T10:10:37.117Z,94.30
2023-03-26T10:11:37.085Z,94.92
2023-03-26T10:12:37.086Z,95.12
2023-03-26T10:13:37.059Z,95.43
2023-03-26T10:14:37.054Z,94.92
2023-03-26T10:15:37.034Z,95.33
2023-03-26T10:16:37.060Z,95.74
2023-03-26T10:17:37.093Z,95.53
2023-03-26T10:18:36.999Z,95.02
2023-03-26T10:19:36.992Z,95.23
2023-03-26T10:20:36.975Z,94.96
2023-03-26T10:21:36.978Z,95.17
2023-03-26T10:22:36.947Z,95.74
2023-03-26T10:23:36.944Z,95.58
2023-03-26T10:24:36.934Z,95.84
2023-03-26T10:25:36.921Z,96.42
2023-03-26T10:26:36.897Z,96.42
2023-03-26T10:27:36.901Z,95.64
2023-03-26T10:28:36.881Z,95.12
2023-03-26T10:29:36.846Z,95.64
2023-03-26T10:30:36.955Z,96.05
2023-03-26T10:31:36.839Z,95.95
2023-03-26T10:32:36.818Z,96.21
2023-03-26T10:33:36.796Z,95.90
2023-03-26T10:34:36.800Z,95.59
2023-03-26T10:35:36.873Z,95.39
2023-03-26T10:36:36.778Z,95.70
2023-03-26T10:37:36.759Z,95.70
2023-03-26T10:38:36.730Z,95.39
2023-03-26T10:39:38.916Z,94.87
2023-03-26T10:40:36.730Z,94.62
2023-03-26T10:41:36.705Z,94.05
2023-03-26T10:42:36.683Z,94.01
2023-03-26T10:43:36.674Z,94.01
2023-03-26T10:44:36.684Z,93.70
2023-03-26T10:45:36.724Z,93.49
2023-03-26T10:46:36.643Z,93.08
2023-03-26T10:47:36.728Z,92.87
2023-03-26T10:48:36.606Z,93.24
2023-03-26T10:49:36.605Z,93.14
2023-03-26T10:50:36.588Z,93.04
2023-03-26T10:51:36.569Z,92.83
2023-03-26T10:52:36.589Z,91.29
2023-03-26T10:53:36.530Z,91.23
2023-03-26T10:54:36.540Z,91.44
2023-03-26T10:55:36.524Z,92.11
2023-03-26T10:56:36.537Z,92.42
2023-03-26T10:57:36.503Z,91.49
2023-03-26T10:58:48.484Z,91.74
2023-03-26T10:59:37.465Z,92.36
2023-03-26T11:00:36.452Z,92.52
2023-03-26T11:01:36.459Z,92.01
2023-03-26T11:02:36.452Z,92.21
2023-03-26T11:03:36.424Z,92.93
2023-03-26T11:04:36.397Z,92.11
2023-03-26T11:05:36.417Z,91.70
2023-03-26T11:06:36.430Z,91.60
2023-03-26T11:07:36.380Z,91.29
2023-03-26T11:08:36.353Z,91.70
2023-03-26T11:09:36.362Z,92.01
2023-03-26T11:10:36.333Z,91.70
2023-03-26T11:11:36.320Z,91.49
2023-03-26T11:12:36.299Z,91.97
2023-03-26T11:13:36.286Z,92.23
2023-03-26T11:14:36.280Z,91.00
2023-03-26T11:15:36.278Z,90.32
2023-03-26T11:16:36.247Z,89.56
2023-03-26T11:17:40.165Z,90.08
2023-03-26T11:18:37.219Z,90.34
2023-03-26T11:19:36.252Z,90.34
2023-03-26T11:20:36.200Z,89.42
2023-03-26T11:21:36.192Z,88.80
2023-03-26T11:22:36.156Z,88.08
2023-03-26T11:23:36.168Z,87.98
2023-03-26T11:24:36.142Z,88.49
2023-03-26T11:25:36.136Z,89.01
2023-03-26T11:26:37.644Z,89.48
2023-03-26T11:27:36.111Z,88.66
2023-03-26T11:28:36.116Z,88.24
2023-03-26T11:29:36.109Z,87.28
2023-03-26T11:30:36.097Z,87.18
2023-03-26T11:31:36.089Z,86.91
2023-03-26T11:32:36.047Z,87.73
2023-03-26T11:33:36.035Z,87.98
2023-03-26T11:34:36.023Z,88.45
2023-03-26T11:35:42.577Z,88.76
2023-03-26T11:36:36.976Z,87.59
2023-03-26T11:37:35.989Z,87.59
2023-03-26T11:38:35.951Z,86.98
2023-03-26T11:39:35.960Z,86.73
2023-03-26T11:40:35.955Z,87.14
2023-03-26T11:41:35.917Z,87.04
2023-03-26T11:42:35.918Z,86.79
2023-03-26T11:43:35.922Z,85.97
2023-03-26T11:44:35.872Z,85.77
2023-03-26T11:45:35.877Z,86.28
2023-03-26T11:46:35.936Z,86.07
2023-03-26T11:47:35.857Z,85.83
2023-03-26T11:48:35.843Z,84.80
2023-03-26T11:49:35.837Z,84.50
2023-03-26T11:50:35.857Z,82.79
2023-03-26T11:51:35.803Z,83.20
2023-03-26T11:52:35.801Z,83.20
2023-03-26T11:53:35.776Z,82.90
2023-03-26T11:54:35.756Z,82.76
2023-03-26T11:55:35.753Z,82.24
2023-03-26T11:56:35.770Z,82.24
2023-03-26T11:57:35.729Z,82.14
2023-03-26T11:58:35.688Z,82.14
2023-03-26T11:59:45.245Z,82.10
2023-03-26T12:00:36.663Z,82.82
2023-03-26T12:01:35.671Z,82.17
2023-03-26T12:02:35.970Z,82.34
2023-03-26T12:03:35.635Z,80.76
2023-03-26T12:04:35.651Z,81.34
2023-03-26T12:05:35.592Z,77.19
2023-03-26T12:06:35.589Z,77.83
2023-03-26T12:07:35.592Z,78.28
2023-03-26T12:08:35.554Z,79.06
2023-03-26T12:09:35.579Z,77.53
2023-03-26T12:10:35.531Z,77.83
2023-03-26T12:11:35.788Z,78.08
2023-03-26T12:12:35.504Z,78.45
2023-03-26T12:13:35.507Z,77.94
2023-03-26T12:14:35.471Z,78.28
2023-03-26T12:15:35.451Z,78.49
2023-03-26T12:16:35.461Z,79.00
2023-03-26T12:17:35.468Z,78.49
2023-03-26T12:18:35.419Z,78.69
2023-03-26T12:19:35.436Z,79.10
2023-03-26T12:20:35.418Z,79.06
2023-03-26T12:21:35.381Z,78.96
2023-03-26T12:22:35.387Z,79.06
2023-03-26T12:23:35.384Z,79.33
2023-03-26T12:24:35.333Z,77.97
2023-03-26T12:25:35.362Z,77.66
2023-03-26T12:26:35.336Z,78.23
2023-03-26T12:27:35.385Z,76.90
2023-03-26T12:28:35.292Z,76.40
2023-03-26T12:29:35.303Z,75.82
2023-03-26T12:30:35.305Z,76.74
2023-03-26T12:31:35.284Z,76.64
2023-03-26T12:32:45.857Z,77.83
2023-03-26T12:33:36.280Z,76.70
2023-03-26T12:34:35.393Z,76.40
2023-03-26T12:35:35.237Z,75.10
2023-03-26T12:36:35.182Z,75.48
2023-03-26T12:37:35.188Z,76.19
2023-03-26T12:38:35.159Z,75.89
2023-03-26T12:40:07.748Z,73.94
2023-03-26T12:40:36.140Z,74.29
2023-03-26T12:44:46.649Z,74.18
2023-03-26T12:44:49.798Z,74.02
2023-03-26T12:44:49.857Z,74.02
2023-03-26T12:44:53.671Z,74.43
2023-03-26T12:45:37.012Z,73.20
2023-03-26T12:47:55.273Z,73.50
2023-03-26T12:48:01.473Z,73.88
2023-03-26T12:48:36.086Z,74.46
2023-03-26T12:49:35.012Z,73.84
2023-03-26T12:50:35.875Z,73.50
2023-03-26T12:51:35.018Z,72.62
2023-03-26T12:52:34.961Z,72.21